Addison Township, Michigan
Current Conditions -  °F | °C
As of 7:14 AM on Friday 21 Nov 2014 (Local Time) from KD95 Reporting Station
Light Snow Light Snow  
Wind Chill:   Ceiling: Unl
Heat Index:   Visibility: 4mi
Dew Point:   Wind: 3mph
Humidity: 92%   Direction: 260°W
Pressure: 30.35"   Gusts: NA
Location:  42.8434°N, 83.1398°W
Report Text: KD95 211214Z AUTO 26003KT 4SM -SN CLR M13/M14 A3035 RMK AO2 T11351145
Loading
Personal Weather Stations






























Interactive Weather Map New forecast layout! Learn more

10-Day Weather Forecast

Advertisements
Track Severe Weather on mobile